sensor_id;sensor_type;location;lat;lon;timestamp;P1;durP1;ratioP1;P2;durP2;ratioP2
19617;SDS011;9956;51.006;13.670;2024-02-23T00:02:17;0.80;;;0.57;;
19617;SDS011;9956;51.006;13.670;2024-02-23T00:07:18;0.50;;;0.38;;
19617;SDS011;9956;51.006;13.670;2024-02-23T00:12:18;0.85;;;0.70;;
19617;SDS011;9956;51.006;13.670;2024-02-23T00:17:19;0.60;;;0.50;;
19617;SDS011;9956;51.006;13.670;2024-02-23T00:22:19;0.65;;;0.47;;
19617;SDS011;9956;51.006;13.670;2024-02-23T00:27:20;1.40;;;0.50;;
19617;SDS011;9956;51.006;13.670;2024-02-23T00:32:20;1.00;;;0.43;;
19617;SDS011;9956;51.006;13.670;2024-02-23T00:37:21;0.77;;;0.40;;
19617;SDS011;9956;51.006;13.670;2024-02-23T00:42:21;0.95;;;0.40;;
19617;SDS011;9956;51.006;13.670;2024-02-23T00:47:22;0.50;;;0.50;;
19617;SDS011;9956;51.006;13.670;2024-02-23T00:52:22;1.70;;;0.55;;
19617;SDS011;9956;51.006;13.670;2024-02-23T00:57:23;0.70;;;0.40;;
19617;SDS011;9956;51.006;13.670;2024-02-23T01:02:27;1.20;;;0.38;;
19617;SDS011;9956;51.006;13.670;2024-02-23T01:07:28;0.52;;;0.40;;
19617;SDS011;9956;51.006;13.670;2024-02-23T01:12:28;1.75;;;0.30;;
19617;SDS011;9956;51.006;13.670;2024-02-23T01:17:28;0.45;;;0.40;;
19617;SDS011;9956;51.006;13.670;2024-02-23T01:22:29;1.02;;;0.63;;
19617;SDS011;9956;51.006;13.670;2024-02-23T01:27:29;0.70;;;0.50;;
19617;SDS011;9956;51.006;13.670;2024-02-23T01:32:30;1.73;;;0.63;;
19617;SDS011;9956;51.006;13.670;2024-02-23T01:37:30;1.70;;;0.60;;
19617;SDS011;9956;51.006;13.670;2024-02-23T01:42:31;0.45;;;0.40;;
19617;SDS011;9956;51.006;13.670;2024-02-23T01:47:31;1.40;;;0.35;;
19617;SDS011;9956;51.006;13.670;2024-02-23T01:52:32;4.57;;;0.60;;
19617;SDS011;9956;51.006;13.670;2024-02-23T01:57:32;1.13;;;0.38;;
19617;SDS011;9956;51.006;13.670;2024-02-23T02:02:34;2.42;;;0.50;;
19617;SDS011;9956;51.006;13.670;2024-02-23T02:07:34;0.75;;;0.55;;
19617;SDS011;9956;51.006;13.670;2024-02-23T02:12:35;0.40;;;0.40;;
19617;SDS011;9956;51.006;13.670;2024-02-23T02:17:35;0.68;;;0.50;;
19617;SDS011;9956;51.006;13.670;2024-02-23T02:22:36;0.50;;;0.40;;
19617;SDS011;9956;51.006;13.670;2024-02-23T02:27:36;1.27;;;0.40;;
19617;SDS011;9956;51.006;13.670;2024-02-23T02:32:37;1.42;;;0.43;;
19617;SDS011;9956;51.006;13.670;2024-02-23T02:37:38;0.77;;;0.60;;
19617;SDS011;9956;51.006;13.670;2024-02-23T02:42:39;0.55;;;0.40;;
19617;SDS011;9956;51.006;13.670;2024-02-23T02:47:40;0.82;;;0.40;;
19617;SDS011;9956;51.006;13.670;2024-02-23T02:52:42;1.10;;;0.68;;
19617;SDS011;9956;51.006;13.670;2024-02-23T02:57:43;0.85;;;0.68;;
19617;SDS011;9956;51.006;13.670;2024-02-23T03:02:44;1.52;;;0.45;;
19617;SDS011;9956;51.006;13.670;2024-02-23T03:07:44;2.97;;;0.47;;
19617;SDS011;9956;51.006;13.670;2024-02-23T03:12:45;0.52;;;0.38;;
19617;SDS011;9956;51.006;13.670;2024-02-23T03:17:45;0.30;;;0.30;;
19617;SDS011;9956;51.006;13.670;2024-02-23T03:22:46;1.33;;;0.30;;
19617;SDS011;9956;51.006;13.670;2024-02-23T03:27:46;1.20;;;0.60;;
19617;SDS011;9956;51.006;13.670;2024-02-23T03:32:47;0.95;;;0.68;;
19617;SDS011;9956;51.006;13.670;2024-02-23T03:37:47;0.52;;;0.52;;
19617;SDS011;9956;51.006;13.670;2024-02-23T03:42:48;0.73;;;0.70;;
19617;SDS011;9956;51.006;13.670;2024-02-23T03:47:48;1.60;;;1.00;;
19617;SDS011;9956;51.006;13.670;2024-02-23T03:52:49;0.60;;;0.40;;
19617;SDS011;9956;51.006;13.670;2024-02-23T03:57:49;2.80;;;0.60;;
19617;SDS011;9956;51.006;13.670;2024-02-23T04:02:49;0.98;;;0.45;;
19617;SDS011;9956;51.006;13.670;2024-02-23T04:07:50;1.88;;;0.50;;
19617;SDS011;9956;51.006;13.670;2024-02-23T04:12:50;1.38;;;0.60;;
19617;SDS011;9956;51.006;13.670;2024-02-23T04:17:51;1.17;;;0.50;;
19617;SDS011;9956;51.006;13.670;2024-02-23T04:22:52;1.45;;;0.60;;
19617;SDS011;9956;51.006;13.670;2024-02-23T04:27:52;1.50;;;0.50;;
19617;SDS011;9956;51.006;13.670;2024-02-23T04:32:53;1.23;;;0.50;;
19617;SDS011;9956;51.006;13.670;2024-02-23T04:37:53;0.82;;;0.40;;
19617;SDS011;9956;51.006;13.670;2024-02-23T04:42:54;0.80;;;0.60;;
19617;SDS011;9956;51.006;13.670;2024-02-23T04:47:54;1.85;;;0.50;;
19617;SDS011;9956;51.006;13.670;2024-02-23T04:52:55;0.60;;;0.50;;
19617;SDS011;9956;51.006;13.670;2024-02-23T04:57:55;0.63;;;0.35;;
19617;SDS011;9956;51.006;13.670;2024-02-23T05:02:56;0.52;;;0.52;;
19617;SDS011;9956;51.006;13.670;2024-02-23T05:07:57;1.50;;;0.40;;
19617;SDS011;9956;51.006;13.670;2024-02-23T05:12:57;3.17;;;0.47;;
19617;SDS011;9956;51.006;13.670;2024-02-23T05:17:58;2.28;;;0.55;;
19617;SDS011;9956;51.006;13.670;2024-02-23T05:22:58;1.73;;;0.70;;
19617;SDS011;9956;51.006;13.670;2024-02-23T05:27:59;1.73;;;0.50;;
19617;SDS011;9956;51.006;13.670;2024-02-23T05:32:59;0.75;;;0.40;;
19617;SDS011;9956;51.006;13.670;2024-02-23T05:38:04;1.33;;;0.70;;
19617;SDS011;9956;51.006;13.670;2024-02-23T05:43:06;3.08;;;0.70;;
19617;SDS011;9956;51.006;13.670;2024-02-23T05:48:07;2.88;;;0.90;;
19617;SDS011;9956;51.006;13.670;2024-02-23T05:53:07;0.63;;;0.63;;
19617;SDS011;9956;51.006;13.670;2024-02-23T05:58:08;1.85;;;0.55;;
19617;SDS011;9956;51.006;13.670;2024-02-23T06:03:09;1.00;;;0.70;;
19617;SDS011;9956;51.006;13.670;2024-02-23T06:08:10;1.17;;;0.73;;
19617;SDS011;9956;51.006;13.670;2024-02-23T06:13:10;4.22;;;0.82;;
19617;SDS011;9956;51.006;13.670;2024-02-23T06:18:11;1.30;;;0.50;;
19617;SDS011;9956;51.006;13.670;2024-02-23T06:23:11;0.98;;;0.60;;
19617;SDS011;9956;51.006;13.670;2024-02-23T06:28:11;1.58;;;0.52;;
19617;SDS011;9956;51.006;13.670;2024-02-23T06:33:12;0.68;;;0.60;;
19617;SDS011;9956;51.006;13.670;2024-02-23T06:38:12;1.52;;;0.50;;
19617;SDS011;9956;51.006;13.670;2024-02-23T06:43:13;3.30;;;0.45;;
19617;SDS011;9956;51.006;13.670;2024-02-23T06:48:13;1.52;;;0.52;;
19617;SDS011;9956;51.006;13.670;2024-02-23T06:53:14;1.40;;;0.47;;
19617;SDS011;9956;51.006;13.670;2024-02-23T06:58:14;1.40;;;0.70;;
19617;SDS011;9956;51.006;13.670;2024-02-23T07:03:16;1.48;;;1.20;;
19617;SDS011;9956;51.006;13.670;2024-02-23T07:08:17;1.88;;;0.90;;
19617;SDS011;9956;51.006;13.670;2024-02-23T07:13:18;1.75;;;1.10;;
19617;SDS011;9956;51.006;13.670;2024-02-23T07:18:19;0.50;;;0.40;;
19617;SDS011;9956;51.006;13.670;2024-02-23T07:23:21;1.30;;;0.80;;
19617;SDS011;9956;51.006;13.670;2024-02-23T07:28:23;1.55;;;0.70;;
19617;SDS011;9956;51.006;13.670;2024-02-23T07:33:23;1.50;;;0.68;;
19617;SDS011;9956;51.006;13.670;2024-02-23T07:38:24;2.05;;;0.80;;
19617;SDS011;9956;51.006;13.670;2024-02-23T07:43:24;1.67;;;0.80;;
19617;SDS011;9956;51.006;13.670;2024-02-23T07:48:26;1.38;;;0.65;;
19617;SDS011;9956;51.006;13.670;2024-02-23T07:53:26;2.20;;;0.80;;
19617;SDS011;9956;51.006;13.670;2024-02-23T07:58:27;3.80;;;1.25;;
19617;SDS011;9956;51.006;13.670;2024-02-23T08:03:30;1.48;;;0.70;;
19617;SDS011;9956;51.006;13.670;2024-02-23T08:08:31;2.30;;;0.68;;
19617;SDS011;9956;51.006;13.670;2024-02-23T08:13:35;0.90;;;0.70;;
19617;SDS011;9956;51.006;13.670;2024-02-23T08:18:35;1.95;;;0.65;;
19617;SDS011;9956;51.006;13.670;2024-02-23T08:23:36;1.35;;;0.70;;
19617;SDS011;9956;51.006;13.670;2024-02-23T08:28:37;1.70;;;0.75;;
19617;SDS011;9956;51.006;13.670;2024-02-23T08:33:37;2.97;;;1.30;;
19617;SDS011;9956;51.006;13.670;2024-02-23T08:38:38;7.57;;;1.92;;
19617;SDS011;9956;51.006;13.670;2024-02-23T08:43:38;2.92;;;1.42;;
19617;SDS011;9956;51.006;13.670;2024-02-23T08:48:39;2.25;;;0.70;;
19617;SDS011;9956;51.006;13.670;2024-02-23T08:53:39;2.03;;;0.80;;
19617;SDS011;9956;51.006;13.670;2024-02-23T08:58:40;1.15;;;0.60;;
19617;SDS011;9956;51.006;13.670;2024-02-23T09:03:40;16.77;;;10.10;;
19617;SDS011;9956;51.006;13.670;2024-02-23T09:08:41;1.73;;;0.70;;
19617;SDS011;9956;51.006;13.670;2024-02-23T09:13:41;1.05;;;0.60;;
19617;SDS011;9956;51.006;13.670;2024-02-23T09:18:42;2.17;;;0.57;;
19617;SDS011;9956;51.006;13.670;2024-02-23T09:23:43;0.32;;;0.22;;
19617;SDS011;9956;51.006;13.670;2024-02-23T09:28:43;3.72;;;1.88;;
19617;SDS011;9956;51.006;13.670;2024-02-23T09:33:45;1.42;;;0.60;;
19617;SDS011;9956;51.006;13.670;2024-02-23T09:38:47;1.38;;;0.60;;
19617;SDS011;9956;51.006;13.670;2024-02-23T09:43:48;1.67;;;0.60;;
19617;SDS011;9956;51.006;13.670;2024-02-23T09:48:49;0.65;;;0.57;;
19617;SDS011;9956;51.006;13.670;2024-02-23T09:53:50;2.63;;;0.65;;
19617;SDS011;9956;51.006;13.670;2024-02-23T09:58:51;1.67;;;0.50;;
19617;SDS011;9956;51.006;13.670;2024-02-23T10:03:54;2.08;;;0.57;;
19617;SDS011;9956;51.006;13.670;2024-02-23T10:08:57;21.13;;;9.80;;
19617;SDS011;9956;51.006;13.670;2024-02-23T10:13:57;1.17;;;0.45;;
19617;SDS011;9956;51.006;13.670;2024-02-23T10:18:58;3.42;;;2.72;;
19617;SDS011;9956;51.006;13.670;2024-02-23T10:23:58;1.58;;;0.95;;
19617;SDS011;9956;51.006;13.670;2024-02-23T10:28:59;2.92;;;0.60;;
19617;SDS011;9956;51.006;13.670;2024-02-23T10:33:59;2.70;;;0.57;;
19617;SDS011;9956;51.006;13.670;2024-02-23T10:39:00;1.08;;;0.65;;
19617;SDS011;9956;51.006;13.670;2024-02-23T10:44:04;2.00;;;0.77;;
19617;SDS011;9956;51.006;13.670;2024-02-23T10:49:05;2.40;;;0.73;;
19617;SDS011;9956;51.006;13.670;2024-02-23T10:54:07;2.55;;;0.60;;
19617;SDS011;9956;51.006;13.670;2024-02-23T10:59:08;1.52;;;0.50;;
19617;SDS011;9956;51.006;13.670;2024-02-23T11:04:08;1.95;;;0.57;;
19617;SDS011;9956;51.006;13.670;2024-02-23T11:09:12;1.88;;;0.50;;
19617;SDS011;9956;51.006;13.670;2024-02-23T11:14:13;1.42;;;0.68;;
19617;SDS011;9956;51.006;13.670;2024-02-23T11:19:13;0.68;;;0.40;;
19617;SDS011;9956;51.006;13.670;2024-02-23T11:24:16;1.20;;;0.40;;
19617;SDS011;9956;51.006;13.670;2024-02-23T11:29:16;2.42;;;0.82;;
19617;SDS011;9956;51.006;13.670;2024-02-23T11:34:22;1.33;;;0.40;;
19617;SDS011;9956;51.006;13.670;2024-02-23T11:39:26;5.97;;;0.45;;
19617;SDS011;9956;51.006;13.670;2024-02-23T11:44:27;1.05;;;0.30;;
19617;SDS011;9956;51.006;13.670;2024-02-23T11:49:28;1.35;;;0.50;;
19617;SDS011;9956;51.006;13.670;2024-02-23T11:54:30;1.15;;;0.30;;
19617;SDS011;9956;51.006;13.670;2024-02-23T11:59:30;1.85;;;0.60;;
19617;SDS011;9956;51.006;13.670;2024-02-23T12:04:32;1.58;;;0.60;;
19617;SDS011;9956;51.006;13.670;2024-02-23T12:09:33;0.57;;;0.30;;
19617;SDS011;9956;51.006;13.670;2024-02-23T12:14:36;1.13;;;0.40;;
19617;SDS011;9956;51.006;13.670;2024-02-23T12:19:38;0.60;;;0.40;;
19617;SDS011;9956;51.006;13.670;2024-02-23T12:24:40;3.67;;;0.50;;
19617;SDS011;9956;51.006;13.670;2024-02-23T12:29:41;1.02;;;0.50;;
19617;SDS011;9956;51.006;13.670;2024-02-23T12:34:43;1.00;;;0.38;;
19617;SDS011;9956;51.006;13.670;2024-02-23T12:39:44;0.98;;;0.57;;
19617;SDS011;9956;51.006;13.670;2024-02-23T12:44:45;1.35;;;0.47;;
19617;SDS011;9956;51.006;13.670;2024-02-23T12:49:45;0.60;;;0.47;;
19617;SDS011;9956;51.006;13.670;2024-02-23T12:54:46;1.80;;;0.50;;
19617;SDS011;9956;51.006;13.670;2024-02-23T12:59:46;1.33;;;0.63;;
19617;SDS011;9956;51.006;13.670;2024-02-23T13:04:47;0.95;;;0.40;;
19617;SDS011;9956;51.006;13.670;2024-02-23T13:09:49;1.00;;;0.60;;
19617;SDS011;9956;51.006;13.670;2024-02-23T13:14:50;3.30;;;0.47;;
19617;SDS011;9956;51.006;13.670;2024-02-23T13:19:51;0.50;;;0.47;;
19617;SDS011;9956;51.006;13.670;2024-02-23T13:24:52;1.40;;;0.68;;
19617;SDS011;9956;51.006;13.670;2024-02-23T13:29:52;2.22;;;0.73;;
19617;SDS011;9956;51.006;13.670;2024-02-23T13:34:52;1.10;;;0.75;;
19617;SDS011;9956;51.006;13.670;2024-02-23T13:39:53;1.00;;;0.70;;
19617;SDS011;9956;51.006;13.670;2024-02-23T13:44:53;1.65;;;0.63;;
19617;SDS011;9956;51.006;13.670;2024-02-23T13:49:54;1.50;;;0.50;;
19617;SDS011;9956;51.006;13.670;2024-02-23T13:54:54;0.85;;;0.50;;
19617;SDS011;9956;51.006;13.670;2024-02-23T13:59:55;1.42;;;0.70;;
19617;SDS011;9956;51.006;13.670;2024-02-23T14:05:13;2.08;;;0.70;;
19617;SDS011;9956;51.006;13.670;2024-02-23T14:10:15;3.65;;;1.02;;
19617;SDS011;9956;51.006;13.670;2024-02-23T14:15:15;2.58;;;1.00;;
19617;SDS011;9956;51.006;13.670;2024-02-23T14:20:29;1.90;;;0.88;;
19617;SDS011;9956;51.006;13.670;2024-02-23T14:25:29;1.40;;;0.70;;
19617;SDS011;9956;51.006;13.670;2024-02-23T14:30:30;1.95;;;0.73;;
19617;SDS011;9956;51.006;13.670;2024-02-23T14:35:30;1.70;;;0.90;;
19617;SDS011;9956;51.006;13.670;2024-02-23T14:40:30;1.27;;;0.82;;
19617;SDS011;9956;51.006;13.670;2024-02-23T14:45:31;1.73;;;0.90;;
19617;SDS011;9956;51.006;13.670;2024-02-23T14:50:31;2.78;;;1.05;;
19617;SDS011;9956;51.006;13.670;2024-02-23T14:55:32;1.90;;;0.60;;
19617;SDS011;9956;51.006;13.670;2024-02-23T15:00:32;2.00;;;0.80;;
19617;SDS011;9956;51.006;13.670;2024-02-23T15:05:33;2.47;;;0.90;;
19617;SDS011;9956;51.006;13.670;2024-02-23T15:10:33;2.53;;;0.90;;
19617;SDS011;9956;51.006;13.670;2024-02-23T15:15:34;3.17;;;0.93;;
19617;SDS011;9956;51.006;13.670;2024-02-23T15:20:36;1.63;;;0.85;;
19617;SDS011;9956;51.006;13.670;2024-02-23T15:25:36;1.17;;;0.90;;
19617;SDS011;9956;51.006;13.670;2024-02-23T15:30:37;2.08;;;0.90;;
19617;SDS011;9956;51.006;13.670;2024-02-23T15:35:37;1.50;;;0.85;;
19617;SDS011;9956;51.006;13.670;2024-02-23T15:40:37;2.58;;;1.20;;
19617;SDS011;9956;51.006;13.670;2024-02-23T15:45:41;4.18;;;2.55;;
19617;SDS011;9956;51.006;13.670;2024-02-23T15:50:43;2.65;;;1.45;;
19617;SDS011;9956;51.006;13.670;2024-02-23T15:55:43;2.50;;;1.40;;
19617;SDS011;9956;51.006;13.670;2024-02-23T16:00:44;3.70;;;0.90;;
19617;SDS011;9956;51.006;13.670;2024-02-23T16:05:44;1.38;;;1.10;;
19617;SDS011;9956;51.006;13.670;2024-02-23T16:10:45;2.78;;;1.10;;
19617;SDS011;9956;51.006;13.670;2024-02-23T16:15:47;3.75;;;1.48;;
19617;SDS011;9956;51.006;13.670;2024-02-23T16:20:47;3.10;;;1.13;;
19617;SDS011;9956;51.006;13.670;2024-02-23T16:25:48;2.53;;;1.08;;
19617;SDS011;9956;51.006;13.670;2024-02-23T16:30:48;1.83;;;1.20;;
19617;SDS011;9956;51.006;13.670;2024-02-23T16:35:49;4.47;;;2.67;;
19617;SDS011;9956;51.006;13.670;2024-02-23T16:40:49;1.73;;;1.40;;
19617;SDS011;9956;51.006;13.670;2024-02-23T16:45:50;3.00;;;2.60;;
19617;SDS011;9956;51.006;13.670;2024-02-23T16:50:50;3.47;;;1.77;;
19617;SDS011;9956;51.006;13.670;2024-02-23T16:55:51;2.65;;;1.35;;
19617;SDS011;9956;51.006;13.670;2024-02-23T17:00:51;2.25;;;1.48;;
19617;SDS011;9956;51.006;13.670;2024-02-23T17:05:54;2.83;;;1.45;;
19617;SDS011;9956;51.006;13.670;2024-02-23T17:10:55;4.15;;;1.70;;
19617;SDS011;9956;51.006;13.670;2024-02-23T17:15:55;4.25;;;2.55;;
19617;SDS011;9956;51.006;13.670;2024-02-23T17:20:56;3.25;;;2.17;;
19617;SDS011;9956;51.006;13.670;2024-02-23T17:25:56;6.55;;;3.80;;
19617;SDS011;9956;51.006;13.670;2024-02-23T17:30:57;12.25;;;7.20;;
19617;SDS011;9956;51.006;13.670;2024-02-23T17:35:57;16.83;;;11.57;;
19617;SDS011;9956;51.006;13.670;2024-02-23T17:40:58;4.63;;;2.13;;
19617;SDS011;9956;51.006;13.670;2024-02-23T17:45:58;2.90;;;2.42;;
19617;SDS011;9956;51.006;13.670;2024-02-23T17:50:59;3.90;;;1.77;;
19617;SDS011;9956;51.006;13.670;2024-02-23T17:56:00;3.20;;;2.17;;
19617;SDS011;9956;51.006;13.670;2024-02-23T18:01:00;4.82;;;2.63;;
19617;SDS011;9956;51.006;13.670;2024-02-23T18:06:01;2.70;;;1.98;;
19617;SDS011;9956;51.006;13.670;2024-02-23T18:11:01;4.88;;;3.70;;
19617;SDS011;9956;51.006;13.670;2024-02-23T18:16:02;5.28;;;3.60;;
19617;SDS011;9956;51.006;13.670;2024-02-23T18:21:09;4.30;;;3.28;;
19617;SDS011;9956;51.006;13.670;2024-02-23T18:26:11;11.18;;;8.45;;
19617;SDS011;9956;51.006;13.670;2024-02-23T18:31:17;10.85;;;7.72;;
19617;SDS011;9956;51.006;13.670;2024-02-23T18:36:18;11.02;;;6.60;;
19617;SDS011;9956;51.006;13.670;2024-02-23T18:41:19;10.18;;;7.55;;
19617;SDS011;9956;51.006;13.670;2024-02-23T18:46:20;10.45;;;7.53;;
19617;SDS011;9956;51.006;13.670;2024-02-23T18:51:20;8.13;;;6.03;;
19617;SDS011;9956;51.006;13.670;2024-02-23T18:56:21;9.90;;;6.82;;
19617;SDS011;9956;51.006;13.670;2024-02-23T19:01:22;10.23;;;6.80;;
19617;SDS011;9956;51.006;13.670;2024-02-23T19:06:22;9.80;;;7.05;;
19617;SDS011;9956;51.006;13.670;2024-02-23T19:11:35;13.07;;;9.40;;
19617;SDS011;9956;51.006;13.670;2024-02-23T19:16:36;12.27;;;8.57;;
19617;SDS011;9956;51.006;13.670;2024-02-23T19:21:38;5.95;;;4.43;;
19617;SDS011;9956;51.006;13.670;2024-02-23T19:26:38;9.35;;;5.32;;
19617;SDS011;9956;51.006;13.670;2024-02-23T19:31:39;7.72;;;5.82;;
19617;SDS011;9956;51.006;13.670;2024-02-23T19:36:39;7.60;;;5.40;;
19617;SDS011;9956;51.006;13.670;2024-02-23T19:41:44;7.65;;;4.65;;
19617;SDS011;9956;51.006;13.670;2024-02-23T19:46:45;6.78;;;4.20;;
19617;SDS011;9956;51.006;13.670;2024-02-23T19:51:46;6.20;;;4.93;;
19617;SDS011;9956;51.006;13.670;2024-02-23T19:56:46;8.48;;;5.15;;
19617;SDS011;9956;51.006;13.670;2024-02-23T20:01:48;7.47;;;5.45;;
19617;SDS011;9956;51.006;13.670;2024-02-23T20:06:48;8.52;;;5.85;;
19617;SDS011;9956;51.006;13.670;2024-02-23T20:11:49;8.65;;;5.88;;
19617;SDS011;9956;51.006;13.670;2024-02-23T20:16:52;12.43;;;8.75;;
19617;SDS011;9956;51.006;13.670;2024-02-23T20:21:53;11.27;;;9.40;;
19617;SDS011;9956;51.006;13.670;2024-02-23T20:26:53;13.95;;;11.60;;
19617;SDS011;9956;51.006;13.670;2024-02-23T20:31:54;16.50;;;11.90;;
19617;SDS011;9956;51.006;13.670;2024-02-23T20:36:54;20.90;;;16.63;;
19617;SDS011;9956;51.006;13.670;2024-02-23T20:41:55;14.85;;;10.88;;
19617;SDS011;9956;51.006;13.670;2024-02-23T20:46:55;16.42;;;12.02;;
19617;SDS011;9956;51.006;13.670;2024-02-23T20:51:56;15.23;;;10.75;;
19617;SDS011;9956;51.006;13.670;2024-02-23T20:56:56;11.90;;;10.27;;
19617;SDS011;9956;51.006;13.670;2024-02-23T21:01:57;16.33;;;11.43;;
19617;SDS011;9956;51.006;13.670;2024-02-23T21:06:57;12.60;;;10.02;;
19617;SDS011;9956;51.006;13.670;2024-02-23T21:11:58;15.63;;;12.05;;
19617;SDS011;9956;51.006;13.670;2024-02-23T21:16:59;15.82;;;11.70;;
19617;SDS011;9956;51.006;13.670;2024-02-23T21:22:00;13.45;;;9.10;;
19617;SDS011;9956;51.006;13.670;2024-02-23T21:27:02;10.88;;;7.13;;
19617;SDS011;9956;51.006;13.670;2024-02-23T21:32:03;8.65;;;6.25;;
19617;SDS011;9956;51.006;13.670;2024-02-23T21:37:04;12.00;;;8.00;;
19617;SDS011;9956;51.006;13.670;2024-02-23T21:42:04;26.08;;;17.67;;
19617;SDS011;9956;51.006;13.670;2024-02-23T21:47:05;20.15;;;14.60;;
19617;SDS011;9956;51.006;13.670;2024-02-23T21:52:05;22.52;;;16.25;;
19617;SDS011;9956;51.006;13.670;2024-02-23T21:57:06;21.65;;;14.43;;
19617;SDS011;9956;51.006;13.670;2024-02-23T22:02:09;17.30;;;10.68;;
19617;SDS011;9956;51.006;13.670;2024-02-23T22:07:09;10.93;;;8.05;;
19617;SDS011;9956;51.006;13.670;2024-02-23T22:12:13;9.05;;;6.97;;
19617;SDS011;9956;51.006;13.670;2024-02-23T22:17:13;11.43;;;7.18;;
19617;SDS011;9956;51.006;13.670;2024-02-23T22:22:14;10.20;;;7.72;;
19617;SDS011;9956;51.006;13.670;2024-02-23T22:27:14;7.43;;;6.03;;
19617;SDS011;9956;51.006;13.670;2024-02-23T22:32:15;8.82;;;5.13;;
19617;SDS011;9956;51.006;13.670;2024-02-23T22:37:16;8.32;;;5.32;;
19617;SDS011;9956;51.006;13.670;2024-02-23T22:42:17;7.50;;;4.63;;
19617;SDS011;9956;51.006;13.670;2024-02-23T22:47:18;6.70;;;4.45;;
19617;SDS011;9956;51.006;13.670;2024-02-23T22:52:18;5.50;;;4.30;;
19617;SDS011;9956;51.006;13.670;2024-02-23T22:57:19;5.25;;;4.10;;
19617;SDS011;9956;51.006;13.670;2024-02-23T23:02:19;6.70;;;4.25;;
19617;SDS011;9956;51.006;13.670;2024-02-23T23:07:20;4.47;;;3.60;;
19617;SDS011;9956;51.006;13.670;2024-02-23T23:12:20;6.50;;;3.75;;
19617;SDS011;9956;51.006;13.670;2024-02-23T23:17:21;6.22;;;3.22;;
19617;SDS011;9956;51.006;13.670;2024-02-23T23:22:21;4.70;;;3.60;;
19617;SDS011;9956;51.006;13.670;2024-02-23T23:27:22;6.80;;;3.60;;
19617;SDS011;9956;51.006;13.670;2024-02-23T23:32:22;5.00;;;3.58;;
19617;SDS011;9956;51.006;13.670;2024-02-23T23:37:22;5.93;;;3.80;;
19617;SDS011;9956;51.006;13.670;2024-02-23T23:42:23;5.10;;;3.72;;
19617;SDS011;9956;51.006;13.670;2024-02-23T23:47:24;6.40;;;4.32;;
19617;SDS011;9956;51.006;13.670;2024-02-23T23:52:24;6.30;;;3.67;;
19617;SDS011;9956;51.006;13.670;2024-02-23T23:57:25;5.07;;;4.00;;
